sensor_id;sensor_type;location;lat;lon;timestamp;P1;durP1;ratioP1;P2;durP2;ratioP2
64500;SDS011;50874;24.150;-110.320;2023-10-09T00:01:27;8.05;;;5.40;;
64500;SDS011;50874;24.150;-110.320;2023-10-09T00:03:56;7.68;;;4.93;;
64500;SDS011;50874;24.150;-110.320;2023-10-09T00:06:26;7.78;;;5.28;;
64500;SDS011;50874;24.150;-110.320;2023-10-09T00:09:12;6.88;;;5.35;;
64500;SDS011;50874;24.150;-110.320;2023-10-09T00:11:51;6.95;;;4.75;;
64500;SDS011;50874;24.150;-110.320;2023-10-09T00:14:31;6.40;;;4.78;;
64500;SDS011;50874;24.150;-110.320;2023-10-09T00:17:18;6.03;;;4.72;;
64500;SDS011;50874;24.150;-110.320;2023-10-09T00:19:46;5.38;;;4.35;;
64500;SDS011;50874;24.150;-110.320;2023-10-09T00:22:19;8.00;;;5.38;;
64500;SDS011;50874;24.150;-110.320;2023-10-09T00:24:52;5.68;;;5.05;;
64500;SDS011;50874;24.150;-110.320;2023-10-09T00:27:39;5.85;;;4.80;;
64500;SDS011;50874;24.150;-110.320;2023-10-09T00:30:16;8.02;;;5.85;;
64500;SDS011;50874;24.150;-110.320;2023-10-09T00:32:44;5.70;;;4.70;;
64500;SDS011;50874;24.150;-110.320;2023-10-09T00:35:17;7.68;;;5.82;;
64500;SDS011;50874;24.150;-110.320;2023-10-09T00:38:15;9.48;;;6.55;;
64500;SDS011;50874;24.150;-110.320;2023-10-09T00:40:50;10.85;;;6.57;;
64500;SDS011;50874;24.150;-110.320;2023-10-09T00:43:49;8.95;;;6.10;;
64500;SDS011;50874;24.150;-110.320;2023-10-09T00:46:21;7.35;;;5.85;;
64500;SDS011;50874;24.150;-110.320;2023-10-09T00:48:52;6.28;;;5.10;;
64500;SDS011;50874;24.150;-110.320;2023-10-09T00:51:26;7.25;;;5.28;;
64500;SDS011;50874;24.150;-110.320;2023-10-09T00:56:33;9.13;;;6.55;;
64500;SDS011;50874;24.150;-110.320;2023-10-09T00:59:23;10.07;;;7.22;;
64500;SDS011;50874;24.150;-110.320;2023-10-09T01:01:53;9.40;;;7.10;;
64500;SDS011;50874;24.150;-110.320;2023-10-09T01:04:25;7.55;;;5.55;;
64500;SDS011;50874;24.150;-110.320;2023-10-09T01:06:53;7.53;;;5.75;;
64500;SDS011;50874;24.150;-110.320;2023-10-09T01:09:38;8.50;;;5.65;;
64500;SDS011;50874;24.150;-110.320;2023-10-09T01:12:16;10.93;;;8.70;;
64500;SDS011;50874;24.150;-110.320;2023-10-09T01:14:43;9.00;;;6.30;;
64500;SDS011;50874;24.150;-110.320;2023-10-09T01:17:13;10.68;;;7.47;;
64500;SDS011;50874;24.150;-110.320;2023-10-09T01:19:54;9.52;;;6.93;;
64500;SDS011;50874;24.150;-110.320;2023-10-09T01:22:24;10.93;;;7.80;;
64500;SDS011;50874;24.150;-110.320;2023-10-09T01:24:51;11.20;;;6.40;;
64500;SDS011;50874;24.150;-110.320;2023-10-09T01:27:23;8.25;;;4.97;;
64500;SDS011;50874;24.150;-110.320;2023-10-09T01:29:57;6.68;;;5.20;;
64500;SDS011;50874;24.150;-110.320;2023-10-09T01:32:26;7.63;;;4.68;;
64500;SDS011;50874;24.150;-110.320;2023-10-09T01:34:54;5.63;;;4.60;;
64500;SDS011;50874;24.150;-110.320;2023-10-09T01:37:23;13.93;;;5.38;;
64500;SDS011;50874;24.150;-110.320;2023-10-09T01:39:56;5.88;;;4.70;;
64500;SDS011;50874;24.150;-110.320;2023-10-09T01:42:26;6.55;;;4.35;;
64500;SDS011;50874;24.150;-110.320;2023-10-09T01:44:55;7.68;;;4.13;;
64500;SDS011;50874;24.150;-110.320;2023-10-09T01:47:34;6.20;;;4.43;;
64500;SDS011;50874;24.150;-110.320;2023-10-09T01:50:03;9.30;;;5.03;;
64500;SDS011;50874;24.150;-110.320;2023-10-09T01:52:48;6.03;;;5.03;;
64500;SDS011;50874;24.150;-110.320;2023-10-09T01:55:24;7.88;;;5.20;;
64500;SDS011;50874;24.150;-110.320;2023-10-09T01:58:07;8.43;;;4.40;;
64500;SDS011;50874;24.150;-110.320;2023-10-09T02:00:55;6.88;;;4.95;;
64500;SDS011;50874;24.150;-110.320;2023-10-09T02:03:22;8.63;;;5.38;;
64500;SDS011;50874;24.150;-110.320;2023-10-09T02:05:55;6.72;;;5.50;;
64500;SDS011;50874;24.150;-110.320;2023-10-09T02:08:44;10.18;;;6.88;;
64500;SDS011;50874;24.150;-110.320;2023-10-09T02:11:15;7.93;;;6.03;;
64500;SDS011;50874;24.150;-110.320;2023-10-09T02:13:55;8.15;;;6.28;;
64500;SDS011;50874;24.150;-110.320;2023-10-09T02:16:26;7.97;;;5.50;;
64500;SDS011;50874;24.150;-110.320;2023-10-09T02:19:07;8.75;;;5.65;;
64500;SDS011;50874;24.150;-110.320;2023-10-09T02:21:56;6.95;;;5.43;;
64500;SDS011;50874;24.150;-110.320;2023-10-09T02:24:26;10.27;;;6.10;;
64500;SDS011;50874;24.150;-110.320;2023-10-09T02:27:12;8.63;;;5.55;;
64500;SDS011;50874;24.150;-110.320;2023-10-09T02:29:53;8.40;;;4.68;;
64500;SDS011;50874;24.150;-110.320;2023-10-09T02:32:28;9.00;;;5.13;;
64500;SDS011;50874;24.150;-110.320;2023-10-09T02:34:57;8.65;;;5.03;;
64500;SDS011;50874;24.150;-110.320;2023-10-09T02:37:34;9.05;;;4.22;;
64500;SDS011;50874;24.150;-110.320;2023-10-09T02:40:03;5.88;;;4.25;;
64500;SDS011;50874;24.150;-110.320;2023-10-09T02:42:34;7.20;;;3.88;;
64500;SDS011;50874;24.150;-110.320;2023-10-09T02:45:01;5.93;;;3.88;;
64500;SDS011;50874;24.150;-110.320;2023-10-09T02:47:32;6.78;;;4.00;;
64500;SDS011;50874;24.150;-110.320;2023-10-09T02:50:05;4.63;;;3.67;;
64500;SDS011;50874;24.150;-110.320;2023-10-09T02:52:51;11.35;;;4.55;;
64500;SDS011;50874;24.150;-110.320;2023-10-09T02:55:30;9.93;;;4.72;;
64500;SDS011;50874;24.150;-110.320;2023-10-09T02:58:04;8.57;;;4.50;;
64500;SDS011;50874;24.150;-110.320;2023-10-09T03:00:35;5.57;;;4.45;;
64500;SDS011;50874;24.150;-110.320;2023-10-09T03:03:04;9.48;;;4.97;;
64500;SDS011;50874;24.150;-110.320;2023-10-09T03:05:32;6.57;;;4.03;;
64500;SDS011;50874;24.150;-110.320;2023-10-09T03:08:02;13.48;;;6.05;;
64500;SDS011;50874;24.150;-110.320;2023-10-09T03:10:31;7.97;;;5.50;;
64500;SDS011;50874;24.150;-110.320;2023-10-09T03:12:59;9.43;;;5.68;;
64500;SDS011;50874;24.150;-110.320;2023-10-09T03:15:28;12.60;;;6.13;;
64500;SDS011;50874;24.150;-110.320;2023-10-09T03:17:59;9.00;;;5.53;;
64500;SDS011;50874;24.150;-110.320;2023-10-09T03:20:26;9.02;;;5.70;;
64500;SDS011;50874;24.150;-110.320;2023-10-09T03:22:58;11.77;;;5.05;;
64500;SDS011;50874;24.150;-110.320;2023-10-09T03:25:29;8.13;;;5.05;;
64500;SDS011;50874;24.150;-110.320;2023-10-09T03:27:59;9.13;;;4.68;;
64500;SDS011;50874;24.150;-110.320;2023-10-09T03:30:31;7.88;;;4.50;;
64500;SDS011;50874;24.150;-110.320;2023-10-09T03:33:00;8.75;;;4.90;;
64500;SDS011;50874;24.150;-110.320;2023-10-09T03:35:28;7.53;;;5.00;;
64500;SDS011;50874;24.150;-110.320;2023-10-09T03:38:02;10.48;;;4.75;;
64500;SDS011;50874;24.150;-110.320;2023-10-09T03:40:41;9.55;;;5.10;;
64500;SDS011;50874;24.150;-110.320;2023-10-09T03:43:13;8.52;;;5.20;;
64500;SDS011;50874;24.150;-110.320;2023-10-09T03:45:40;8.30;;;5.22;;
64500;SDS011;50874;24.150;-110.320;2023-10-09T03:48:29;12.65;;;5.50;;
64500;SDS011;50874;24.150;-110.320;2023-10-09T03:51:02;7.55;;;4.78;;
64500;SDS011;50874;24.150;-110.320;2023-10-09T03:53:38;9.95;;;5.15;;
64500;SDS011;50874;24.150;-110.320;2023-10-09T03:56:06;8.70;;;5.40;;
64500;SDS011;50874;24.150;-110.320;2023-10-09T03:58:42;10.02;;;5.95;;
64500;SDS011;50874;24.150;-110.320;2023-10-09T04:01:15;10.05;;;5.55;;
64500;SDS011;50874;24.150;-110.320;2023-10-09T04:04:04;8.68;;;5.45;;
64500;SDS011;50874;24.150;-110.320;2023-10-09T04:06:38;11.27;;;5.57;;
64500;SDS011;50874;24.150;-110.320;2023-10-09T04:09:06;10.98;;;5.03;;
64500;SDS011;50874;24.150;-110.320;2023-10-09T04:11:44;9.32;;;5.75;;
64500;SDS011;50874;24.150;-110.320;2023-10-09T04:14:15;9.02;;;5.20;;
64500;SDS011;50874;24.150;-110.320;2023-10-09T04:16:52;9.52;;;5.20;;
64500;SDS011;50874;24.150;-110.320;2023-10-09T04:19:28;8.93;;;4.95;;
64500;SDS011;50874;24.150;-110.320;2023-10-09T04:22:04;7.07;;;4.70;;
64500;SDS011;50874;24.150;-110.320;2023-10-09T04:24:35;8.13;;;5.18;;
64500;SDS011;50874;24.150;-110.320;2023-10-09T04:27:13;8.70;;;5.60;;
64500;SDS011;50874;24.150;-110.320;2023-10-09T04:29:42;12.65;;;6.38;;
64500;SDS011;50874;24.150;-110.320;2023-10-09T04:32:15;10.63;;;7.73;;
64500;SDS011;50874;24.150;-110.320;2023-10-09T04:34:42;14.68;;;7.68;;
64500;SDS011;50874;24.150;-110.320;2023-10-09T04:37:14;9.82;;;6.80;;
64500;SDS011;50874;24.150;-110.320;2023-10-09T04:40:03;13.32;;;6.18;;
64500;SDS011;50874;24.150;-110.320;2023-10-09T04:43:05;12.50;;;7.15;;
64500;SDS011;50874;24.150;-110.320;2023-10-09T04:45:36;14.45;;;7.57;;
64500;SDS011;50874;24.150;-110.320;2023-10-09T04:48:21;11.25;;;6.30;;
64500;SDS011;50874;24.150;-110.320;2023-10-09T04:51:06;11.98;;;6.90;;
64500;SDS011;50874;24.150;-110.320;2023-10-09T04:53:53;8.45;;;6.72;;
64500;SDS011;50874;24.150;-110.320;2023-10-09T04:56:38;9.05;;;6.13;;
64500;SDS011;50874;24.150;-110.320;2023-10-09T04:59:19;12.95;;;6.53;;
64500;SDS011;50874;24.150;-110.320;2023-10-09T05:01:53;9.80;;;6.72;;
64500;SDS011;50874;24.150;-110.320;2023-10-09T05:04:36;9.02;;;5.45;;
64500;SDS011;50874;24.150;-110.320;2023-10-09T05:07:02;10.25;;;6.25;;
64500;SDS011;50874;24.150;-110.320;2023-10-09T05:09:48;11.32;;;5.65;;
64500;SDS011;50874;24.150;-110.320;2023-10-09T05:12:48;10.45;;;5.57;;
64500;SDS011;50874;24.150;-110.320;2023-10-09T05:15:37;8.48;;;5.55;;
64500;SDS011;50874;24.150;-110.320;2023-10-09T05:18:11;11.13;;;5.57;;
64500;SDS011;50874;24.150;-110.320;2023-10-09T05:20:41;12.82;;;5.65;;
64500;SDS011;50874;24.150;-110.320;2023-10-09T05:23:36;7.90;;;4.47;;
64500;SDS011;50874;24.150;-110.320;2023-10-09T05:26:09;8.70;;;5.05;;
64500;SDS011;50874;24.150;-110.320;2023-10-09T05:28:54;7.80;;;4.65;;
64500;SDS011;50874;24.150;-110.320;2023-10-09T05:31:24;9.65;;;5.07;;
64500;SDS011;50874;24.150;-110.320;2023-10-09T05:34:08;11.60;;;5.47;;
64500;SDS011;50874;24.150;-110.320;2023-10-09T05:36:40;8.30;;;4.50;;
64500;SDS011;50874;24.150;-110.320;2023-10-09T05:39:13;8.40;;;5.32;;
64500;SDS011;50874;24.150;-110.320;2023-10-09T05:42:02;6.20;;;3.92;;
64500;SDS011;50874;24.150;-110.320;2023-10-09T05:44:35;6.50;;;4.38;;
64500;SDS011;50874;24.150;-110.320;2023-10-09T05:47:19;9.65;;;5.68;;
64500;SDS011;50874;24.150;-110.320;2023-10-09T05:50:04;6.70;;;4.80;;
64500;SDS011;50874;24.150;-110.320;2023-10-09T05:52:38;8.23;;;6.07;;
64500;SDS011;50874;24.150;-110.320;2023-10-09T05:55:05;10.27;;;5.78;;
64500;SDS011;50874;24.150;-110.320;2023-10-09T05:57:40;8.50;;;6.05;;
64500;SDS011;50874;24.150;-110.320;2023-10-09T06:00:39;8.43;;;5.28;;
64500;SDS011;50874;24.150;-110.320;2023-10-09T06:03:24;13.80;;;6.30;;
64500;SDS011;50874;24.150;-110.320;2023-10-09T06:05:54;9.48;;;5.40;;
64500;SDS011;50874;24.150;-110.320;2023-10-09T06:08:22;9.25;;;6.07;;
64500;SDS011;50874;24.150;-110.320;2023-10-09T06:11:08;11.20;;;4.82;;
64500;SDS011;50874;24.150;-110.320;2023-10-09T06:13:57;6.13;;;4.05;;
64500;SDS011;50874;24.150;-110.320;2023-10-09T06:16:34;6.00;;;3.33;;
64500;SDS011;50874;24.150;-110.320;2023-10-09T06:19:05;5.40;;;3.83;;
64500;SDS011;50874;24.150;-110.320;2023-10-09T06:21:41;9.15;;;4.90;;
64500;SDS011;50874;24.150;-110.320;2023-10-09T06:24:10;7.85;;;4.70;;
64500;SDS011;50874;24.150;-110.320;2023-10-09T06:26:41;8.27;;;5.55;;
64500;SDS011;50874;24.150;-110.320;2023-10-09T06:29:26;9.13;;;5.10;;
64500;SDS011;50874;24.150;-110.320;2023-10-09T06:32:14;7.68;;;4.20;;
64500;SDS011;50874;24.150;-110.320;2023-10-09T06:37:17;7.80;;;3.95;;
64500;SDS011;50874;24.150;-110.320;2023-10-09T06:39:58;7.95;;;4.35;;
64500;SDS011;50874;24.150;-110.320;2023-10-09T06:42:31;8.20;;;4.63;;
64500;SDS011;50874;24.150;-110.320;2023-10-09T06:45:04;8.55;;;4.45;;
64500;SDS011;50874;24.150;-110.320;2023-10-09T06:47:49;10.90;;;5.47;;
64500;SDS011;50874;24.150;-110.320;2023-10-09T06:50:21;11.52;;;6.13;;
64500;SDS011;50874;24.150;-110.320;2023-10-09T06:52:48;10.55;;;5.53;;
64500;SDS011;50874;24.150;-110.320;2023-10-09T06:55:43;10.25;;;5.75;;
64500;SDS011;50874;24.150;-110.320;2023-10-09T06:58:20;16.40;;;6.22;;
64500;SDS011;50874;24.150;-110.320;2023-10-09T07:01:07;11.57;;;5.93;;
64500;SDS011;50874;24.150;-110.320;2023-10-09T07:03:50;11.23;;;6.63;;
64500;SDS011;50874;24.150;-110.320;2023-10-09T07:06:25;11.68;;;6.47;;
64500;SDS011;50874;24.150;-110.320;2023-10-09T07:09:11;12.85;;;6.25;;
64500;SDS011;50874;24.150;-110.320;2023-10-09T07:11:58;7.32;;;5.57;;
64500;SDS011;50874;24.150;-110.320;2023-10-09T07:14:25;8.73;;;6.50;;
64500;SDS011;50874;24.150;-110.320;2023-10-09T07:17:01;10.32;;;6.95;;
64500;SDS011;50874;24.150;-110.320;2023-10-09T07:19:48;11.38;;;7.10;;
64500;SDS011;50874;24.150;-110.320;2023-10-09T07:22:15;12.25;;;6.47;;
64500;SDS011;50874;24.150;-110.320;2023-10-09T07:24:47;10.93;;;6.47;;
64500;SDS011;50874;24.150;-110.320;2023-10-09T07:27:29;7.90;;;6.30;;
64500;SDS011;50874;24.150;-110.320;2023-10-09T07:30:17;8.45;;;6.45;;
64500;SDS011;50874;24.150;-110.320;2023-10-09T07:33:01;11.20;;;6.80;;
64500;SDS011;50874;24.150;-110.320;2023-10-09T07:38:28;10.85;;;6.70;;
64500;SDS011;50874;24.150;-110.320;2023-10-09T07:40:55;10.57;;;6.35;;
64500;SDS011;50874;24.150;-110.320;2023-10-09T07:43:35;11.30;;;6.80;;
64500;SDS011;50874;24.150;-110.320;2023-10-09T07:46:09;11.43;;;7.03;;
64500;SDS011;50874;24.150;-110.320;2023-10-09T07:49:01;13.10;;;8.05;;
64500;SDS011;50874;24.150;-110.320;2023-10-09T07:51:40;55.80;;;32.97;;
64500;SDS011;50874;24.150;-110.320;2023-10-09T07:54:18;63.90;;;36.65;;
64500;SDS011;50874;24.150;-110.320;2023-10-09T07:57:16;23.02;;;15.30;;
64500;SDS011;50874;24.150;-110.320;2023-10-09T07:59:43;23.77;;;11.63;;
64500;SDS011;50874;24.150;-110.320;2023-10-09T08:02:46;11.43;;;8.18;;
64500;SDS011;50874;24.150;-110.320;2023-10-09T08:05:16;14.75;;;6.35;;
64500;SDS011;50874;24.150;-110.320;2023-10-09T08:07:48;11.18;;;7.28;;
64500;SDS011;50874;24.150;-110.320;2023-10-09T08:10:42;13.52;;;9.07;;
64500;SDS011;50874;24.150;-110.320;2023-10-09T08:13:29;9.38;;;5.50;;
64500;SDS011;50874;24.150;-110.320;2023-10-09T08:16:13;6.28;;;5.22;;
64500;SDS011;50874;24.150;-110.320;2023-10-09T08:21:22;11.15;;;5.10;;
64500;SDS011;50874;24.150;-110.320;2023-10-09T08:24:07;9.45;;;5.65;;
64500;SDS011;50874;24.150;-110.320;2023-10-09T08:26:53;10.68;;;5.00;;
64500;SDS011;50874;24.150;-110.320;2023-10-09T08:29:49;9.45;;;5.53;;
64500;SDS011;50874;24.150;-110.320;2023-10-09T08:32:35;7.35;;;5.68;;
64500;SDS011;50874;24.150;-110.320;2023-10-09T08:35:33;9.30;;;6.05;;
64500;SDS011;50874;24.150;-110.320;2023-10-09T08:38:11;9.15;;;6.47;;
64500;SDS011;50874;24.150;-110.320;2023-10-09T08:40:41;10.52;;;6.38;;
64500;SDS011;50874;24.150;-110.320;2023-10-09T08:43:14;13.63;;;7.78;;
64500;SDS011;50874;24.150;-110.320;2023-10-09T08:45:54;14.05;;;9.25;;
64500;SDS011;50874;24.150;-110.320;2023-10-09T08:48:31;12.70;;;9.45;;
64500;SDS011;50874;24.150;-110.320;2023-10-09T08:50:58;13.20;;;8.77;;
64500;SDS011;50874;24.150;-110.320;2023-10-09T08:53:31;14.20;;;10.32;;
64500;SDS011;50874;24.150;-110.320;2023-10-09T08:55:58;16.23;;;9.93;;
64500;SDS011;50874;24.150;-110.320;2023-10-09T08:58:24;14.43;;;10.15;;
64500;SDS011;50874;24.150;-110.320;2023-10-09T09:01:00;15.65;;;10.32;;
64500;SDS011;50874;24.150;-110.320;2023-10-09T09:03:26;14.30;;;9.32;;
64500;SDS011;50874;24.150;-110.320;2023-10-09T09:06:17;16.17;;;9.20;;
64500;SDS011;50874;24.150;-110.320;2023-10-09T09:08:52;16.13;;;9.98;;
64500;SDS011;50874;24.150;-110.320;2023-10-09T09:11:48;11.52;;;8.50;;
64500;SDS011;50874;24.150;-110.320;2023-10-09T09:14:18;13.63;;;8.82;;
64500;SDS011;50874;24.150;-110.320;2023-10-09T09:16:47;13.48;;;8.73;;
64500;SDS011;50874;24.150;-110.320;2023-10-09T09:19:30;13.88;;;8.52;;
64500;SDS011;50874;24.150;-110.320;2023-10-09T09:21:58;12.63;;;8.00;;
64500;SDS011;50874;24.150;-110.320;2023-10-09T09:24:25;12.23;;;7.93;;
64500;SDS011;50874;24.150;-110.320;2023-10-09T09:27:04;9.43;;;7.55;;
64500;SDS011;50874;24.150;-110.320;2023-10-09T09:29:47;10.15;;;6.75;;
64500;SDS011;50874;24.150;-110.320;2023-10-09T09:32:28;10.02;;;7.50;;
64500;SDS011;50874;24.150;-110.320;2023-10-09T09:35:16;21.05;;;6.97;;
64500;SDS011;50874;24.150;-110.320;2023-10-09T09:37:53;8.43;;;6.38;;
64500;SDS011;50874;24.150;-110.320;2023-10-09T09:40:20;9.18;;;6.25;;
64500;SDS011;50874;24.150;-110.320;2023-10-09T09:43:00;10.40;;;5.68;;
64500;SDS011;50874;24.150;-110.320;2023-10-09T09:45:39;6.18;;;5.57;;
64500;SDS011;50874;24.150;-110.320;2023-10-09T09:48:26;7.45;;;6.00;;
64500;SDS011;50874;24.150;-110.320;2023-10-09T09:50:53;6.35;;;5.30;;
64500;SDS011;50874;24.150;-110.320;2023-10-09T09:53:25;9.05;;;6.57;;
64500;SDS011;50874;24.150;-110.320;2023-10-09T09:55:52;8.45;;;5.97;;
64500;SDS011;50874;24.150;-110.320;2023-10-09T09:58:25;8.25;;;5.72;;
64500;SDS011;50874;24.150;-110.320;2023-10-09T10:01:07;7.68;;;6.03;;
64500;SDS011;50874;24.150;-110.320;2023-10-09T10:04:07;10.32;;;6.28;;
64500;SDS011;50874;24.150;-110.320;2023-10-09T10:06:49;8.10;;;6.45;;
64500;SDS011;50874;24.150;-110.320;2023-10-09T10:09:39;6.75;;;5.55;;
64500;SDS011;50874;24.150;-110.320;2023-10-09T10:12:07;8.93;;;6.53;;
64500;SDS011;50874;24.150;-110.320;2023-10-09T10:14:53;8.32;;;6.93;;
64500;SDS011;50874;24.150;-110.320;2023-10-09T10:18:22;9.45;;;6.55;;
64500;SDS011;50874;24.150;-110.320;2023-10-09T10:20:29;9.23;;;7.30;;
64500;SDS011;50874;24.150;-110.320;2023-10-09T10:23:15;11.30;;;6.93;;
64500;SDS011;50874;24.150;-110.320;2023-10-09T10:25:50;7.45;;;6.18;;
64500;SDS011;50874;24.150;-110.320;2023-10-09T10:28:25;11.00;;;6.75;;
64500;SDS011;50874;24.150;-110.320;2023-10-09T10:31:04;9.02;;;7.20;;
64500;SDS011;50874;24.150;-110.320;2023-10-09T10:36:27;8.40;;;6.35;;
64500;SDS011;50874;24.150;-110.320;2023-10-09T10:39:04;8.18;;;6.10;;
64500;SDS011;50874;24.150;-110.320;2023-10-09T10:41:32;6.65;;;5.93;;
64500;SDS011;50874;24.150;-110.320;2023-10-09T10:44:04;7.75;;;6.25;;
64500;SDS011;50874;24.150;-110.320;2023-10-09T10:46:48;7.95;;;6.50;;
64500;SDS011;50874;24.150;-110.320;2023-10-09T10:49:28;9.70;;;7.03;;
64500;SDS011;50874;24.150;-110.320;2023-10-09T10:52:05;8.20;;;6.68;;
64500;SDS011;50874;24.150;-110.320;2023-10-09T10:54:57;9.68;;;7.15;;
64500;SDS011;50874;24.150;-110.320;2023-10-09T10:57:44;9.05;;;6.97;;
64500;SDS011;50874;24.150;-110.320;2023-10-09T11:00:30;8.25;;;6.85;;
64500;SDS011;50874;24.150;-110.320;2023-10-09T11:03:20;8.90;;;7.03;;
64500;SDS011;50874;24.150;-110.320;2023-10-09T11:06:23;10.70;;;7.75;;
64500;SDS011;50874;24.150;-110.320;2023-10-09T11:09:02;8.90;;;7.22;;
64500;SDS011;50874;24.150;-110.320;2023-10-09T11:12:03;8.75;;;6.95;;
64500;SDS011;50874;24.150;-110.320;2023-10-09T11:14:48;8.52;;;7.18;;
64500;SDS011;50874;24.150;-110.320;2023-10-09T11:17:35;7.35;;;6.65;;
64500;SDS011;50874;24.150;-110.320;2023-10-09T11:20:04;7.75;;;6.95;;
64500;SDS011;50874;24.150;-110.320;2023-10-09T11:22:59;7.88;;;7.00;;
64500;SDS011;50874;24.150;-110.320;2023-10-09T11:25:36;8.48;;;7.53;;
64500;SDS011;50874;24.150;-110.320;2023-10-09T11:28:28;8.13;;;7.13;;
64500;SDS011;50874;24.150;-110.320;2023-10-09T11:31:24;8.98;;;7.45;;
64500;SDS011;50874;24.150;-110.320;2023-10-09T11:33:51;9.73;;;7.70;;
64500;SDS011;50874;24.150;-110.320;2023-10-09T11:36:23;7.97;;;7.18;;
64500;SDS011;50874;24.150;-110.320;2023-10-09T11:38:59;10.13;;;7.10;;
64500;SDS011;50874;24.150;-110.320;2023-10-09T11:41:43;8.85;;;6.78;;
64500;SDS011;50874;24.150;-110.320;2023-10-09T11:44:10;7.53;;;6.82;;
64500;SDS011;50874;24.150;-110.320;2023-10-09T11:47:04;6.93;;;6.25;;
64500;SDS011;50874;24.150;-110.320;2023-10-09T11:50:00;7.03;;;6.25;;
64500;SDS011;50874;24.150;-110.320;2023-10-09T11:52:30;6.70;;;6.10;;
64500;SDS011;50874;24.150;-110.320;2023-10-09T11:55:04;7.78;;;6.95;;
64500;SDS011;50874;24.150;-110.320;2023-10-09T11:57:42;8.88;;;6.97;;
64500;SDS011;50874;24.150;-110.320;2023-10-09T12:00:08;8.00;;;6.80;;
64500;SDS011;50874;24.150;-110.320;2023-10-09T12:03:04;9.43;;;6.88;;
64500;SDS011;50874;24.150;-110.320;2023-10-09T12:05:31;10.77;;;6.28;;
64500;SDS011;50874;24.150;-110.320;2023-10-09T12:07:59;6.65;;;5.90;;
64500;SDS011;50874;24.150;-110.320;2023-10-09T12:10:33;7.93;;;6.70;;
64500;SDS011;50874;24.150;-110.320;2023-10-09T12:13:03;8.65;;;6.60;;
64500;SDS011;50874;24.150;-110.320;2023-10-09T12:15:34;7.38;;;6.70;;
64500;SDS011;50874;24.150;-110.320;2023-10-09T12:18:06;9.25;;;6.07;;
64500;SDS011;50874;24.150;-110.320;2023-10-09T12:20:40;7.88;;;6.45;;
64500;SDS011;50874;24.150;-110.320;2023-10-09T12:23:07;7.10;;;6.40;;
64500;SDS011;50874;24.150;-110.320;2023-10-09T12:25:40;7.65;;;6.80;;
64500;SDS011;50874;24.150;-110.320;2023-10-09T12:28:10;9.90;;;6.20;;
64500;SDS011;50874;24.150;-110.320;2023-10-09T12:30:40;7.43;;;6.72;;
64500;SDS011;50874;24.150;-110.320;2023-10-09T12:33:07;7.18;;;6.57;;
64500;SDS011;50874;24.150;-110.320;2023-10-09T12:35:38;9.82;;;6.63;;
64500;SDS011;50874;24.150;-110.320;2023-10-09T12:38:08;6.85;;;6.25;;
64500;SDS011;50874;24.150;-110.320;2023-10-09T12:40:38;7.95;;;6.68;;
64500;SDS011;50874;24.150;-110.320;2023-10-09T12:43:06;6.55;;;5.95;;
64500;SDS011;50874;24.150;-110.320;2023-10-09T12:45:42;6.68;;;6.07;;
64500;SDS011;50874;24.150;-110.320;2023-10-09T12:48:10;8.95;;;6.85;;
64500;SDS011;50874;24.150;-110.320;2023-10-09T12:50:38;7.88;;;6.70;;
64500;SDS011;50874;24.150;-110.320;2023-10-09T12:53:07;11.15;;;6.72;;
64500;SDS011;50874;24.150;-110.320;2023-10-09T12:55:34;8.85;;;7.25;;
64500;SDS011;50874;24.150;-110.320;2023-10-09T12:58:08;14.82;;;6.18;;
64500;SDS011;50874;24.150;-110.320;2023-10-09T13:00:39;7.65;;;6.70;;
64500;SDS011;50874;24.150;-110.320;2023-10-09T13:03:14;7.53;;;6.18;;
64500;SDS011;50874;24.150;-110.320;2023-10-09T13:05:45;7.72;;;6.03;;
64500;SDS011;50874;24.150;-110.320;2023-10-09T13:08:32;7.82;;;5.65;;
64500;SDS011;50874;24.150;-110.320;2023-10-09T13:11:09;9.25;;;5.30;;
64500;SDS011;50874;24.150;-110.320;2023-10-09T13:13:38;6.00;;;5.35;;
64500;SDS011;50874;24.150;-110.320;2023-10-09T13:16:18;5.70;;;5.20;;
64500;SDS011;50874;24.150;-110.320;2023-10-09T13:18:52;9.10;;;6.03;;
64500;SDS011;50874;24.150;-110.320;2023-10-09T13:21:23;7.55;;;5.82;;
64500;SDS011;50874;24.150;-110.320;2023-10-09T13:23:52;6.38;;;5.78;;
64500;SDS011;50874;24.150;-110.320;2023-10-09T13:26:30;7.00;;;5.20;;
64500;SDS011;50874;24.150;-110.320;2023-10-09T13:29:07;5.70;;;5.20;;
64500;SDS011;50874;24.150;-110.320;2023-10-09T13:31:40;7.60;;;5.20;;
64500;SDS011;50874;24.150;-110.320;2023-10-09T13:34:12;9.43;;;4.85;;
64500;SDS011;50874;24.150;-110.320;2023-10-09T13:36:42;6.15;;;4.30;;
64500;SDS011;50874;24.150;-110.320;2023-10-09T13:39:40;6.00;;;3.67;;
64500;SDS011;50874;24.150;-110.320;2023-10-09T13:42:21;5.40;;;4.63;;
64500;SDS011;50874;24.150;-110.320;2023-10-09T13:44:51;6.45;;;4.03;;
64500;SDS011;50874;24.150;-110.320;2023-10-09T13:47:21;7.13;;;4.20;;
64500;SDS011;50874;24.150;-110.320;2023-10-09T13:49:56;4.32;;;3.28;;
64500;SDS011;50874;24.150;-110.320;2023-10-09T13:52:34;6.38;;;4.28;;
64500;SDS011;50874;24.150;-110.320;2023-10-09T13:55:05;5.18;;;3.78;;
64500;SDS011;50874;24.150;-110.320;2023-10-09T13:57:42;13.68;;;3.70;;
64500;SDS011;50874;24.150;-110.320;2023-10-09T14:00:12;4.05;;;3.65;;
64500;SDS011;50874;24.150;-110.320;2023-10-09T14:02:43;7.20;;;3.63;;
64500;SDS011;50874;24.150;-110.320;2023-10-09T14:05:12;4.45;;;3.90;;
64500;SDS011;50874;24.150;-110.320;2023-10-09T14:07:42;5.07;;;4.03;;
64500;SDS011;50874;24.150;-110.320;2023-10-09T14:10:08;5.75;;;3.60;;
64500;SDS011;50874;24.150;-110.320;2023-10-09T14:12:43;7.78;;;4.20;;
64500;SDS011;50874;24.150;-110.320;2023-10-09T14:15:13;6.80;;;4.78;;
64500;SDS011;50874;24.150;-110.320;2023-10-09T14:17:43;5.95;;;4.43;;
64500;SDS011;50874;24.150;-110.320;2023-10-09T14:20:12;10.40;;;4.97;;
64500;SDS011;50874;24.150;-110.320;2023-10-09T14:22:58;9.82;;;5.35;;
64500;SDS011;50874;24.150;-110.320;2023-10-09T14:25:46;9.98;;;5.07;;
64500;SDS011;50874;24.150;-110.320;2023-10-09T14:28:15;5.88;;;4.82;;
64500;SDS011;50874;24.150;-110.320;2023-10-09T14:30:44;7.78;;;5.05;;
64500;SDS011;50874;24.150;-110.320;2023-10-09T14:33:15;11.05;;;4.72;;
64500;SDS011;50874;24.150;-110.320;2023-10-09T14:35:48;7.32;;;5.10;;
64500;SDS011;50874;24.150;-110.320;2023-10-09T14:38:15;7.32;;;4.93;;
64500;SDS011;50874;24.150;-110.320;2023-10-09T14:40:44;7.75;;;5.28;;
64500;SDS011;50874;24.150;-110.320;2023-10-09T14:43:14;8.35;;;5.30;;
64500;SDS011;50874;24.150;-110.320;2023-10-09T14:45:49;6.55;;;5.90;;
64500;SDS011;50874;24.150;-110.320;2023-10-09T14:48:19;8.77;;;5.70;;
64500;SDS011;50874;24.150;-110.320;2023-10-09T14:50:53;7.75;;;5.70;;
64500;SDS011;50874;24.150;-110.320;2023-10-09T14:53:22;8.98;;;5.10;;
64500;SDS011;50874;24.150;-110.320;2023-10-09T14:55:59;5.55;;;4.43;;
64500;SDS011;50874;24.150;-110.320;2023-10-09T14:58:45;7.30;;;4.90;;
64500;SDS011;50874;24.150;-110.320;2023-10-09T15:01:12;6.60;;;4.90;;
64500;SDS011;50874;24.150;-110.320;2023-10-09T15:03:43;6.72;;;4.00;;
64500;SDS011;50874;24.150;-110.320;2023-10-09T15:06:16;5.20;;;3.90;;
64500;SDS011;50874;24.150;-110.320;2023-10-09T15:08:44;7.18;;;4.20;;
64500;SDS011;50874;24.150;-110.320;2023-10-09T15:11:14;9.52;;;4.78;;
64500;SDS011;50874;24.150;-110.320;2023-10-09T15:13:43;7.60;;;4.05;;